createdAt,value
2018-10-16T00:00:52.241Z,10.61
2018-10-16T00:01:52.229Z,10.59
2018-10-16T00:02:52.221Z,10.61
2018-10-16T00:03:52.209Z,10.57
2018-10-16T00:04:52.198Z,10.57
2018-10-16T00:05:52.186Z,10.54
2018-10-16T00:06:52.175Z,10.53
2018-10-16T00:07:52.166Z,10.51
2018-10-16T00:08:52.154Z,10.51
2018-10-16T00:09:52.143Z,10.50
2018-10-16T00:10:52.133Z,10.50
2018-10-16T00:11:52.123Z,10.50
2018-10-16T00:12:52.114Z,10.53
2018-10-16T00:13:52.103Z,10.53
2018-10-16T00:14:52.092Z,10.54
2018-10-16T00:15:52.081Z,10.56
2018-10-16T00:16:52.068Z,10.56
2018-10-16T00:17:52.058Z,10.53
2018-10-16T00:18:52.047Z,10.53
2018-10-16T00:19:52.035Z,10.50
2018-10-16T00:20:52.027Z,10.51
2018-10-16T00:21:52.015Z,10.50
2018-10-16T00:22:52.005Z,10.51
2018-10-16T00:23:51.992Z,10.51
2018-10-16T00:24:51.984Z,10.51
2018-10-16T00:25:51.971Z,10.51
2018-10-16T00:26:51.961Z,10.50
2018-10-16T00:27:51.949Z,10.49
2018-10-16T00:28:51.938Z,10.47
2018-10-16T00:29:51.930Z,10.43
2018-10-16T00:30:51.919Z,10.39
2018-10-16T00:31:51.910Z,10.36
2018-10-16T00:32:51.897Z,10.36
2018-10-16T00:33:51.885Z,10.35
2018-10-16T00:34:51.876Z,10.38
2018-10-16T00:35:51.863Z,10.38
2018-10-16T00:36:51.855Z,10.42
2018-10-16T00:37:51.842Z,10.43
2018-10-16T00:38:51.836Z,10.46
2018-10-16T00:39:51.823Z,10.46
2018-10-16T00:40:51.814Z,10.46
2018-10-16T00:41:51.798Z,10.49
2018-10-16T00:42:51.787Z,10.49
2018-10-16T00:43:51.777Z,10.47
2018-10-16T00:44:51.768Z,10.47
2018-10-16T00:45:51.756Z,10.46
2018-10-16T00:46:51.748Z,10.47
2018-10-16T00:47:51.734Z,10.44
2018-10-16T00:48:51.724Z,10.42
2018-10-16T00:49:51.714Z,10.35
2018-10-16T00:50:51.703Z,10.34
2018-10-16T00:51:51.690Z,10.32
2018-10-16T00:52:51.681Z,10.29
2018-10-16T00:53:51.669Z,10.25
2018-10-16T00:54:51.747Z,10.24
2018-10-16T00:55:51.648Z,10.20
2018-10-16T00:56:51.636Z,10.17
2018-10-16T00:57:51.627Z,10.13
2018-10-16T00:58:51.622Z,10.11
2018-10-16T00:59:51.603Z,10.07
2018-10-16T01:00:51.597Z,10.07
2018-10-16T01:01:51.583Z,10.10
2018-10-16T01:02:51.571Z,10.14
2018-10-16T01:03:51.561Z,10.16
2018-10-16T01:04:51.554Z,10.16
2018-10-16T01:05:51.542Z,10.16
2018-10-16T01:06:51.536Z,10.16
2018-10-16T01:07:51.521Z,10.16
2018-10-16T01:08:51.509Z,10.16
2018-10-16T01:09:51.498Z,10.13
2018-10-16T01:10:51.485Z,10.13
2018-10-16T01:11:51.477Z,10.16
2018-10-16T01:12:51.465Z,10.13
2018-10-16T01:13:51.458Z,10.11
2018-10-16T01:14:51.444Z,10.09
2018-10-16T01:15:51.435Z,10.04
2018-10-16T01:16:51.420Z,10.02
2018-10-16T01:17:51.411Z,10.01
2018-10-16T01:18:51.400Z,10.01
2018-10-16T01:19:51.387Z,9.99
2018-10-16T01:20:51.379Z,9.98
2018-10-16T01:21:51.368Z,9.96
2018-10-16T01:22:51.356Z,9.98
2018-10-16T01:23:51.347Z,9.96
2018-10-16T01:24:51.335Z,9.96
2018-10-16T01:25:51.325Z,9.95
2018-10-16T01:26:51.314Z,9.93
2018-10-16T01:27:51.305Z,9.92
2018-10-16T01:28:51.296Z,9.92
2018-10-16T01:29:51.282Z,9.93
2018-10-16T01:30:51.270Z,9.96
2018-10-16T01:31:51.258Z,9.95
2018-10-16T01:32:51.250Z,9.92
2018-10-16T01:33:51.237Z,9.91
2018-10-16T01:34:51.225Z,9.88
2018-10-16T01:35:51.214Z,9.88
2018-10-16T01:36:51.204Z,9.86
2018-10-16T01:37:51.193Z,9.85
2018-10-16T01:38:51.184Z,9.86
2018-10-16T01:39:51.172Z,9.86
2018-10-16T01:40:51.162Z,9.88
2018-10-16T01:41:51.153Z,9.86
2018-10-16T01:42:51.138Z,9.80
2018-10-16T01:43:51.128Z,9.74
2018-10-16T01:44:51.121Z,9.69
2018-10-16T01:45:51.108Z,9.67
2018-10-16T01:46:51.097Z,9.66
2018-10-16T01:47:51.086Z,9.69
2018-10-16T01:48:51.075Z,9.70
2018-10-16T01:49:51.068Z,9.70
2018-10-16T01:50:51.054Z,9.70
2018-10-16T01:51:51.045Z,9.70
2018-10-16T01:52:51.031Z,9.72
2018-10-16T01:53:51.021Z,9.72
2018-10-16T01:54:51.015Z,9.70
2018-10-16T01:55:50.999Z,9.66
2018-10-16T01:56:50.991Z,9.61
2018-10-16T01:57:50.980Z,9.61
2018-10-16T01:58:50.969Z,9.55
2018-10-16T01:59:50.958Z,9.54
2018-10-16T02:00:50.950Z,9.54
2018-10-16T02:01:50.936Z,9.54
2018-10-16T02:02:50.925Z,9.52
2018-10-16T02:03:50.916Z,9.52
2018-10-16T02:04:50.904Z,9.49
2018-10-16T02:05:50.900Z,9.48
2018-10-16T02:06:50.882Z,9.47
2018-10-16T02:07:50.876Z,9.48
2018-10-16T02:08:50.859Z,9.44
2018-10-16T02:09:50.850Z,9.49
2018-10-16T02:10:50.838Z,9.51
2018-10-16T02:11:50.832Z,9.51
2018-10-16T02:12:50.819Z,9.49
2018-10-16T02:13:50.807Z,9.47
2018-10-16T02:14:50.931Z,9.47
2018-10-16T02:15:50.784Z,9.43
2018-10-16T02:16:50.776Z,9.43
2018-10-16T02:17:50.763Z,9.40
2018-10-16T02:18:50.753Z,9.40
2018-10-16T02:19:50.742Z,9.41
2018-10-16T02:20:50.731Z,9.41
2018-10-16T02:21:50.720Z,9.41
2018-10-16T02:22:50.713Z,9.43
2018-10-16T02:23:50.700Z,9.43
2018-10-16T02:24:50.689Z,9.41
2018-10-16T02:25:50.676Z,9.41
2018-10-16T02:26:50.665Z,9.43
2018-10-16T02:27:50.654Z,9.44
2018-10-16T02:28:50.646Z,9.43
2018-10-16T02:29:50.634Z,9.43
2018-10-16T02:30:50.624Z,9.43
2018-10-16T02:31:50.613Z,9.41
2018-10-16T02:32:50.601Z,9.39
2018-10-16T02:33:50.598Z,9.37
2018-10-16T02:34:50.582Z,9.34
2018-10-16T02:35:50.569Z,9.34
2018-10-16T02:36:50.562Z,9.30
2018-10-16T02:37:50.562Z,9.29
2018-10-16T02:38:50.536Z,9.26
2018-10-16T02:39:50.528Z,9.23
2018-10-16T02:40:50.518Z,9.25
2018-10-16T02:41:50.504Z,9.25
2018-10-16T02:42:50.493Z,9.22
2018-10-16T02:43:50.485Z,9.22
2018-10-16T02:44:50.470Z,9.23
2018-10-16T02:45:50.463Z,9.23
2018-10-16T02:46:50.451Z,9.22
2018-10-16T02:47:50.439Z,9.21
2018-10-16T02:48:50.442Z,9.21
2018-10-16T02:49:50.423Z,9.21
2018-10-16T02:50:50.407Z,9.22
2018-10-16T02:51:50.396Z,9.23
2018-10-16T02:52:50.385Z,9.25
2018-10-16T02:53:50.378Z,9.26
2018-10-16T02:54:50.364Z,9.26
2018-10-16T02:55:50.354Z,9.29
2018-10-16T02:56:50.345Z,9.30
2018-10-16T02:57:50.334Z,9.30
2018-10-16T02:58:50.323Z,9.31
2018-10-16T02:59:50.317Z,9.34
2018-10-16T03:00:50.300Z,9.39
2018-10-16T03:01:50.291Z,9.39
2018-10-16T03:02:50.280Z,9.40
2018-10-16T03:03:50.268Z,9.39
2018-10-16T03:04:50.256Z,9.41
2018-10-16T03:05:50.247Z,9.44
2018-10-16T03:06:50.237Z,9.47
2018-10-16T03:07:50.223Z,9.47
2018-10-16T03:08:50.217Z,9.48
2018-10-16T03:09:50.205Z,9.47
2018-10-16T03:10:50.193Z,9.47
2018-10-16T03:11:50.181Z,9.47
2018-10-16T03:12:50.171Z,9.47
2018-10-16T03:13:50.159Z,9.48
2018-10-16T03:14:50.152Z,9.49
2018-10-16T03:15:50.138Z,9.51
2018-10-16T03:16:50.128Z,9.51
2018-10-16T03:17:50.115Z,9.49
2018-10-16T03:18:50.113Z,9.52
2018-10-16T03:19:50.099Z,9.54
2018-10-16T03:20:50.085Z,9.55
2018-10-16T03:21:50.073Z,9.54
2018-10-16T03:22:50.070Z,9.54
2018-10-16T03:23:50.050Z,9.54
2018-10-16T03:24:50.041Z,9.51
2018-10-16T03:25:50.027Z,9.52
2018-10-16T03:26:50.020Z,9.54
2018-10-16T03:27:50.008Z,9.54
2018-10-16T03:28:49.999Z,9.54
2018-10-16T03:29:49.989Z,9.52
2018-10-16T03:30:49.977Z,9.55
2018-10-16T03:31:49.966Z,9.59
2018-10-16T03:32:49.956Z,9.61
2018-10-16T03:33:49.945Z,9.64
2018-10-16T03:34:49.934Z,9.64
2018-10-16T03:35:49.923Z,9.59
2018-10-16T03:36:49.912Z,9.55
2018-10-16T03:37:49.900Z,9.52
2018-10-16T03:38:49.891Z,9.51
2018-10-16T03:39:49.880Z,9.52
2018-10-16T03:40:49.867Z,9.52
2018-10-16T03:41:49.859Z,9.52
2018-10-16T03:42:49.845Z,9.51
2018-10-16T03:43:49.835Z,9.54
2018-10-16T03:44:49.826Z,9.57
2018-10-16T03:45:49.814Z,9.57
2018-10-16T03:46:49.816Z,9.55
2018-10-16T03:47:49.795Z,9.57
2018-10-16T03:48:49.780Z,9.58
2018-10-16T03:49:49.775Z,9.57
2018-10-16T03:50:49.760Z,9.57
2018-10-16T03:51:49.749Z,9.58
2018-10-16T03:52:49.739Z,9.57
2018-10-16T03:53:49.730Z,9.55
2018-10-16T03:54:49.717Z,9.55
2018-10-16T03:55:49.719Z,9.57
2018-10-16T03:56:49.695Z,9.59
2018-10-16T03:57:49.685Z,9.61
2018-10-16T03:58:49.676Z,9.67
2018-10-16T03:59:49.663Z,9.69
2018-10-16T04:00:49.659Z,9.72
2018-10-16T04:01:49.642Z,9.72
2018-10-16T04:02:49.634Z,9.73
2018-10-16T04:03:49.618Z,9.70
2018-10-16T04:04:49.610Z,9.69
2018-10-16T04:05:49.598Z,9.69
2018-10-16T04:06:49.649Z,9.70
2018-10-16T04:07:49.580Z,9.70
2018-10-16T04:08:49.565Z,9.70
2018-10-16T04:09:49.558Z,9.72
2018-10-16T04:10:49.548Z,9.73
2018-10-16T04:11:49.534Z,9.76
2018-10-16T04:12:49.524Z,9.77
2018-10-16T04:13:49.514Z,9.77
2018-10-16T04:14:49.504Z,9.76
2018-10-16T04:15:49.489Z,9.77
2018-10-16T04:16:49.481Z,9.81
2018-10-16T04:17:49.472Z,9.81
2018-10-16T04:18:49.460Z,9.81
2018-10-16T04:19:49.447Z,9.76
2018-10-16T04:20:49.438Z,9.74
2018-10-16T04:21:49.432Z,9.74
2018-10-16T04:22:49.514Z,9.74
2018-10-16T04:23:49.418Z,9.74
2018-10-16T04:24:49.393Z,9.77
2018-10-16T04:25:49.382Z,9.80
2018-10-16T04:26:49.378Z,9.81
2018-10-16T04:27:49.359Z,9.83
2018-10-16T04:28:49.351Z,9.85
2018-10-16T04:29:49.340Z,9.88
2018-10-16T04:30:49.330Z,9.86
2018-10-16T04:31:49.317Z,9.85
2018-10-16T04:32:49.309Z,9.81
2018-10-16T04:33:49.298Z,9.83
2018-10-16T04:34:49.285Z,9.85
2018-10-16T04:35:49.276Z,9.86
2018-10-16T04:36:49.263Z,9.88
2018-10-16T04:37:49.252Z,9.91
2018-10-16T04:38:49.245Z,9.89
2018-10-16T04:39:49.230Z,9.89
2018-10-16T04:40:49.224Z,9.91
2018-10-16T04:41:49.212Z,9.89
2018-10-16T04:42:49.210Z,9.88
2018-10-16T04:43:49.270Z,9.91
2018-10-16T04:44:49.179Z,9.89
2018-10-16T04:45:49.167Z,9.88
2018-10-16T04:46:49.157Z,9.85
2018-10-16T04:47:49.145Z,9.83
2018-10-16T04:48:49.136Z,9.81
2018-10-16T04:49:49.124Z,9.80
2018-10-16T04:50:49.113Z,9.81
2018-10-16T04:51:49.106Z,9.81
2018-10-16T04:52:49.091Z,9.83
2018-10-16T04:53:49.080Z,9.80
2018-10-16T04:54:49.141Z,9.83
2018-10-16T04:55:49.059Z,9.83
2018-10-16T04:56:49.051Z,9.83
2018-10-16T04:57:49.044Z,9.85
2018-10-16T04:58:49.027Z,9.85
2018-10-16T04:59:49.017Z,9.81
2018-10-16T05:00:49.004Z,9.80
2018-10-16T05:01:48.992Z,9.81
2018-10-16T05:02:48.983Z,9.81
2018-10-16T05:03:48.972Z,9.81
2018-10-16T05:04:48.964Z,9.81
2018-10-16T05:05:48.953Z,9.80
2018-10-16T05:06:48.973Z,9.73
2018-10-16T05:07:48.931Z,9.73
2018-10-16T05:08:48.920Z,9.74
2018-10-16T05:09:48.910Z,9.77
2018-10-16T05:10:48.895Z,9.80
2018-10-16T05:11:48.886Z,9.80
2018-10-16T05:12:48.877Z,9.77
2018-10-16T05:13:48.867Z,9.76
2018-10-16T05:14:48.909Z,9.77
2018-10-16T05:15:48.843Z,9.80
2018-10-16T05:16:48.892Z,9.81
2018-10-16T05:17:48.821Z,9.83
2018-10-16T05:18:48.945Z,9.83
2018-10-16T05:19:48.800Z,9.81
2018-10-16T05:20:48.789Z,9.81
2018-10-16T05:21:48.779Z,9.85
2018-10-16T05:22:48.770Z,9.85
2018-10-16T05:23:48.758Z,9.85
2018-10-16T05:24:48.745Z,9.85
2018-10-16T05:25:48.736Z,9.81
2018-10-16T05:26:48.726Z,9.80
2018-10-16T05:27:48.718Z,9.80
2018-10-16T05:28:48.731Z,9.80
2018-10-16T05:29:48.693Z,9.80
2018-10-16T05:30:48.691Z,9.81
2018-10-16T05:31:48.670Z,9.83
2018-10-16T05:32:48.658Z,9.85
2018-10-16T05:33:48.649Z,9.83
2018-10-16T05:34:48.639Z,9.85
2018-10-16T05:35:48.629Z,9.85
2018-10-16T05:36:48.616Z,9.85
2018-10-16T05:37:48.606Z,9.88
2018-10-16T05:38:48.594Z,9.89
2018-10-16T05:39:48.585Z,9.92
2018-10-16T05:40:48.572Z,9.92
2018-10-16T05:41:48.565Z,9.88
2018-10-16T05:42:48.550Z,9.88
2018-10-16T05:43:48.542Z,9.85
2018-10-16T05:44:48.531Z,9.83
2018-10-16T05:45:48.522Z,9.80
2018-10-16T05:46:48.510Z,9.76
2018-10-16T05:47:48.498Z,9.77
2018-10-16T05:48:48.486Z,9.77
2018-10-16T05:49:48.477Z,9.77
2018-10-16T05:50:48.468Z,9.80
2018-10-16T05:51:48.453Z,9.83
2018-10-16T05:52:48.444Z,9.86
2018-10-16T05:53:48.435Z,9.88
2018-10-16T05:54:48.421Z,9.85
2018-10-16T05:55:48.413Z,9.80
2018-10-16T05:56:48.401Z,9.80
2018-10-16T05:57:48.391Z,9.76
2018-10-16T05:58:48.380Z,9.77
2018-10-16T05:59:48.367Z,9.74
2018-10-16T06:00:48.360Z,9.74
2018-10-16T06:01:48.348Z,9.74
2018-10-16T06:02:48.337Z,9.74
2018-10-16T06:03:48.326Z,9.74
2018-10-16T06:04:48.313Z,9.72
2018-10-16T06:05:48.414Z,9.69
2018-10-16T06:06:48.293Z,9.69
2018-10-16T06:07:48.284Z,9.66
2018-10-16T06:08:48.274Z,9.67
2018-10-16T06:09:48.261Z,9.67
2018-10-16T06:10:48.287Z,9.69
2018-10-16T06:11:48.242Z,9.67
2018-10-16T06:12:48.230Z,9.70
2018-10-16T06:13:48.218Z,9.73
2018-10-16T06:14:48.207Z,9.76
2018-10-16T06:15:48.211Z,9.74
2018-10-16T06:16:48.187Z,9.77
2018-10-16T06:17:48.173Z,9.77
2018-10-16T06:18:48.169Z,9.81
2018-10-16T06:19:48.154Z,9.85
2018-10-16T06:20:48.141Z,9.86
2018-10-16T06:21:48.137Z,10.02
2018-10-16T06:22:48.121Z,10.42
2018-10-16T06:23:48.110Z,10.90
2018-10-16T06:24:48.099Z,11.26
2018-10-16T06:25:48.090Z,11.53
2018-10-16T06:26:48.079Z,11.67
2018-10-16T06:27:48.180Z,11.79
2018-10-16T06:28:48.058Z,11.85
2018-10-16T06:29:48.045Z,11.96
2018-10-16T06:30:48.037Z,12.15
2018-10-16T06:31:48.024Z,12.29
2018-10-16T06:32:48.016Z,12.40
2018-10-16T06:33:48.002Z,12.42
2018-10-16T06:34:47.992Z,12.51
2018-10-16T06:35:47.981Z,12.63
2018-10-16T06:36:47.971Z,12.76
2018-10-16T06:37:47.959Z,12.94
2018-10-16T06:38:47.946Z,13.07
2018-10-16T06:39:47.940Z,13.22
2018-10-16T06:40:48.122Z,13.28
2018-10-16T06:41:47.969Z,13.40
2018-10-16T06:42:47.905Z,13.43
2018-10-16T06:43:47.941Z,13.47
2018-10-16T06:44:47.886Z,13.42
2018-10-16T06:45:47.877Z,13.38
2018-10-16T06:46:47.862Z,13.14
2018-10-16T06:47:47.909Z,12.76
2018-10-16T06:48:48.191Z,12.12
2018-10-16T06:49:47.829Z,11.62
2018-10-16T06:50:47.817Z,11.28
2018-10-16T06:51:47.807Z,11.04
2018-10-16T06:52:47.798Z,10.85
2018-10-16T06:53:47.787Z,10.68
2018-10-16T06:54:47.917Z,10.56
2018-10-16T06:55:47.770Z,10.47
2018-10-16T06:56:47.755Z,10.42
2018-10-16T06:57:47.743Z,10.38
2018-10-16T06:58:47.731Z,10.35
2018-10-16T06:59:47.720Z,10.32
2018-10-16T07:00:47.712Z,10.32
2018-10-16T07:01:47.701Z,10.31
2018-10-16T07:02:47.689Z,10.31
2018-10-16T07:03:47.677Z,10.32
2018-10-16T07:04:47.667Z,10.29
2018-10-16T07:05:47.655Z,10.32
2018-10-16T07:06:47.708Z,10.35
2018-10-16T07:07:47.638Z,10.36
2018-10-16T07:08:47.628Z,10.39
2018-10-16T07:09:47.611Z,10.43
2018-10-16T07:10:47.600Z,10.50
2018-10-16T07:11:47.590Z,10.56
2018-10-16T07:12:47.580Z,10.61
2018-10-16T07:13:47.568Z,10.62
2018-10-16T07:14:47.608Z,10.62
2018-10-16T07:15:47.547Z,10.68
2018-10-16T07:16:47.537Z,10.68
2018-10-16T07:17:47.524Z,10.69
2018-10-16T07:18:47.515Z,10.69
2018-10-16T07:19:47.505Z,10.71
2018-10-16T07:20:47.493Z,10.74
2018-10-16T07:21:47.483Z,10.74
2018-10-16T07:22:47.473Z,10.75
2018-10-16T07:23:47.485Z,10.75
2018-10-16T07:24:47.450Z,10.80
2018-10-16T07:25:47.443Z,10.86
2018-10-16T07:26:47.428Z,10.92
2018-10-16T07:27:47.417Z,10.98
2018-10-16T07:28:47.410Z,11.02
2018-10-16T07:29:47.399Z,11.08
2018-10-16T07:30:47.385Z,11.10
2018-10-16T07:31:47.373Z,11.12
2018-10-16T07:32:47.363Z,11.11
2018-10-16T07:33:47.356Z,11.12
2018-10-16T07:34:47.344Z,11.11
2018-10-16T07:35:47.340Z,11.12
2018-10-16T07:36:47.319Z,11.15
2018-10-16T07:37:47.432Z,11.19
2018-10-16T07:38:47.362Z,11.24
2018-10-16T07:39:47.286Z,11.30
2018-10-16T07:40:47.276Z,11.35
2018-10-16T07:41:47.268Z,11.38
2018-10-16T07:42:47.256Z,11.39
2018-10-16T07:43:47.249Z,11.39
2018-10-16T07:44:47.233Z,11.42
2018-10-16T07:45:47.223Z,11.48
2018-10-16T07:46:47.211Z,11.54
2018-10-16T07:47:47.200Z,11.63
2018-10-16T07:48:47.189Z,11.69
2018-10-16T07:49:47.179Z,11.77
2018-10-16T07:50:47.169Z,11.82
2018-10-16T07:51:47.163Z,11.92
2018-10-16T07:52:47.146Z,11.99
2018-10-16T07:53:47.136Z,12.06
2018-10-16T07:54:47.134Z,12.11
2018-10-16T07:55:47.117Z,12.11
2018-10-16T07:56:47.106Z,12.12
2018-10-16T07:57:47.108Z,12.17
2018-10-16T07:58:47.082Z,12.18
2018-10-16T07:59:47.070Z,12.22
2018-10-16T08:00:47.089Z,12.29
2018-10-16T08:01:47.048Z,12.32
2018-10-16T08:02:47.038Z,12.35
2018-10-16T08:03:47.026Z,12.37
2018-10-16T08:04:47.015Z,12.43
2018-10-16T08:05:47.007Z,12.50
2018-10-16T08:06:46.993Z,12.55
2018-10-16T08:07:46.983Z,12.58
2018-10-16T08:08:46.973Z,12.67
2018-10-16T08:09:46.961Z,12.74
2018-10-16T08:10:46.949Z,12.74
2018-10-16T08:11:46.941Z,12.80
2018-10-16T08:12:46.931Z,12.85
2018-10-16T08:13:46.922Z,12.94
2018-10-16T08:14:46.907Z,12.99
2018-10-16T08:15:46.902Z,13.06
2018-10-16T08:16:46.886Z,13.13
2018-10-16T08:17:46.876Z,13.16
2018-10-16T08:18:46.866Z,13.21
2018-10-16T08:19:46.855Z,13.29
2018-10-16T08:20:46.844Z,13.35
2018-10-16T08:21:46.834Z,13.38
2018-10-16T08:22:46.823Z,13.40
2018-10-16T08:23:46.823Z,13.46
2018-10-16T08:24:46.800Z,13.50
2018-10-16T08:25:46.791Z,13.62
2018-10-16T08:26:46.816Z,13.71
2018-10-16T08:27:46.768Z,13.75
2018-10-16T08:28:46.756Z,13.79
2018-10-16T08:29:46.745Z,13.80
2018-10-16T08:30:46.736Z,13.82
2018-10-16T08:31:46.723Z,13.87
2018-10-16T08:32:46.716Z,13.92
2018-10-16T08:33:46.703Z,13.92
2018-10-16T08:34:46.741Z,13.93
2018-10-16T08:35:46.786Z,13.90
2018-10-16T08:36:46.759Z,13.87
2018-10-16T08:37:46.663Z,13.82
2018-10-16T08:38:46.647Z,13.80
2018-10-16T08:39:46.637Z,13.80
2018-10-16T08:40:46.627Z,13.85
2018-10-16T08:41:46.665Z,13.85
2018-10-16T08:42:46.607Z,13.86
2018-10-16T08:43:46.595Z,13.87
2018-10-16T08:44:46.584Z,13.93
2018-10-16T08:45:46.571Z,13.98
2018-10-16T08:46:46.561Z,14.01
2018-10-16T08:47:46.550Z,14.06
2018-10-16T08:48:46.541Z,14.09
2018-10-16T08:49:46.530Z,14.11
2018-10-16T08:50:46.519Z,14.13
2018-10-16T08:51:46.507Z,14.19
2018-10-16T08:52:46.498Z,14.27
2018-10-16T08:53:46.486Z,14.31
2018-10-16T08:54:46.507Z,14.39
2018-10-16T08:55:46.466Z,14.44
2018-10-16T08:56:46.456Z,14.49
2018-10-16T08:57:46.448Z,14.60
2018-10-16T08:58:46.431Z,14.66
2018-10-16T08:59:46.422Z,14.74
2018-10-16T09:00:46.410Z,14.79
2018-10-16T09:01:46.400Z,14.85
2018-10-16T09:02:46.393Z,14.86
2018-10-16T09:03:46.379Z,14.89
2018-10-16T09:04:46.368Z,14.93
2018-10-16T09:05:46.358Z,14.96
2018-10-16T09:06:46.465Z,14.99
2018-10-16T09:07:46.334Z,15.02
2018-10-16T09:08:46.323Z,15.06
2018-10-16T09:09:46.317Z,15.12
2018-10-16T09:10:46.304Z,15.15
2018-10-16T09:11:46.295Z,15.17
2018-10-16T09:12:46.283Z,15.18
2018-10-16T09:13:46.326Z,15.22
2018-10-16T09:14:46.260Z,15.26
2018-10-16T09:15:46.254Z,15.32
2018-10-16T09:16:46.240Z,15.36
2018-10-16T09:17:46.228Z,15.45
2018-10-16T09:18:46.215Z,15.51
2018-10-16T09:19:46.206Z,15.55
2018-10-16T09:20:46.197Z,15.56
2018-10-16T09:21:46.184Z,15.58
2018-10-16T09:22:46.175Z,15.60
2018-10-16T09:23:46.163Z,15.64
2018-10-16T09:24:46.261Z,15.70
2018-10-16T09:25:46.142Z,15.73
2018-10-16T09:26:46.133Z,15.77
2018-10-16T09:27:46.119Z,15.84
2018-10-16T09:28:46.111Z,15.86
2018-10-16T09:29:46.100Z,15.85
2018-10-16T09:30:46.120Z,15.88
2018-10-16T09:31:46.079Z,15.92
2018-10-16T09:32:46.067Z,15.99
2018-10-16T09:33:46.057Z,16.04
2018-10-16T09:34:46.051Z,16.10
2018-10-16T09:35:46.035Z,16.14
2018-10-16T09:36:46.025Z,16.21
2018-10-16T09:37:46.238Z,16.28
2018-10-16T09:38:46.003Z,16.29
2018-10-16T09:39:45.991Z,16.35
2018-10-16T09:40:45.982Z,16.41
2018-10-16T09:41:45.973Z,16.47
2018-10-16T09:42:45.958Z,16.51
2018-10-16T09:43:45.948Z,16.58
2018-10-16T09:44:45.939Z,16.62
2018-10-16T09:45:45.926Z,16.71
2018-10-16T09:46:45.915Z,16.68
2018-10-16T09:47:45.905Z,16.68
2018-10-16T09:48:45.896Z,16.71
2018-10-16T09:49:45.886Z,16.77
2018-10-16T09:50:45.874Z,16.80
2018-10-16T09:51:45.863Z,16.81
2018-10-16T09:52:45.851Z,16.86
2018-10-16T09:53:45.844Z,16.90
2018-10-16T09:54:45.830Z,16.95
2018-10-16T09:55:45.824Z,16.96
2018-10-16T09:56:45.810Z,17.03
2018-10-16T09:57:45.798Z,17.05
2018-10-16T09:58:45.789Z,17.09
2018-10-16T09:59:45.776Z,17.15
2018-10-16T10:00:45.798Z,17.18
2018-10-16T10:01:45.755Z,17.24
2018-10-16T10:02:45.744Z,17.28
2018-10-16T10:03:45.732Z,17.33
2018-10-16T10:04:45.723Z,17.33
2018-10-16T10:05:45.710Z,17.43
2018-10-16T10:06:45.703Z,17.54
2018-10-16T10:07:45.691Z,17.65
2018-10-16T10:08:45.684Z,17.73
2018-10-16T10:09:45.669Z,17.76
2018-10-16T10:10:45.687Z,17.78
2018-10-16T10:11:45.648Z,17.82
2018-10-16T10:12:45.635Z,17.86
2018-10-16T10:13:45.624Z,17.91
2018-10-16T10:14:45.618Z,17.98
2018-10-16T10:15:45.604Z,18.04
2018-10-16T10:16:45.595Z,18.09
2018-10-16T10:17:45.582Z,18.12
2018-10-16T10:18:45.571Z,18.16
2018-10-16T10:19:45.563Z,18.19
2018-10-16T10:20:45.554Z,18.24
2018-10-16T10:21:45.540Z,18.32
2018-10-16T10:22:45.531Z,18.30
2018-10-16T10:23:45.525Z,18.30
2018-10-16T10:24:45.509Z,18.32
2018-10-16T10:25:45.509Z,18.30
2018-10-16T10:26:45.487Z,18.34
2018-10-16T10:27:45.475Z,18.36
2018-10-16T10:28:45.466Z,18.44
2018-10-16T10:29:45.577Z,18.50
2018-10-16T10:30:45.444Z,18.51
2018-10-16T10:31:45.432Z,18.56
2018-10-16T10:32:45.421Z,18.60
2018-10-16T10:33:45.409Z,18.62
2018-10-16T10:34:45.400Z,18.65
2018-10-16T10:35:45.388Z,18.68
2018-10-16T10:36:45.377Z,18.72
2018-10-16T10:37:45.367Z,18.76
2018-10-16T10:38:45.356Z,18.83
2018-10-16T10:39:45.344Z,18.89
2018-10-16T10:40:45.333Z,18.91
2018-10-16T10:41:45.324Z,18.96
2018-10-16T10:42:45.314Z,18.99
2018-10-16T10:43:45.303Z,19.05
2018-10-16T10:44:45.290Z,19.09
2018-10-16T10:45:45.281Z,19.15
2018-10-16T10:46:45.269Z,19.24
2018-10-16T10:47:45.259Z,19.26
2018-10-16T10:48:45.247Z,19.30
2018-10-16T10:49:45.246Z,19.27
2018-10-16T10:50:45.521Z,19.22
2018-10-16T10:51:45.225Z,19.19
2018-10-16T10:52:45.206Z,19.27
2018-10-16T10:53:45.195Z,19.39
2018-10-16T10:54:45.186Z,19.48
2018-10-16T10:55:45.172Z,19.57
2018-10-16T10:56:45.269Z,19.66
2018-10-16T10:57:45.150Z,19.69
2018-10-16T10:58:45.146Z,19.75
2018-10-16T10:59:45.128Z,19.75
2018-10-16T11:00:45.116Z,19.76
2018-10-16T11:01:45.107Z,19.76
2018-10-16T11:02:45.097Z,19.80
2018-10-16T11:03:45.099Z,19.85
2018-10-16T11:04:45.074Z,19.90
2018-10-16T11:05:45.064Z,20.00
2018-10-16T11:06:45.053Z,20.05
2018-10-16T11:07:45.041Z,20.15
2018-10-16T11:08:45.035Z,20.26
2018-10-16T11:09:45.024Z,20.35
2018-10-16T11:10:45.010Z,20.45
2018-10-16T11:11:44.999Z,20.52
2018-10-16T11:12:44.991Z,20.62
2018-10-16T11:13:44.979Z,20.68
2018-10-16T11:14:44.965Z,20.71
2018-10-16T11:15:44.956Z,20.75
2018-10-16T11:16:44.951Z,20.78
2018-10-16T11:17:44.935Z,20.77
2018-10-16T11:18:44.926Z,20.75
2018-10-16T11:19:44.913Z,20.77
2018-10-16T11:20:44.904Z,20.81
2018-10-16T11:21:44.892Z,20.86
2018-10-16T11:22:44.881Z,20.90
2018-10-16T11:23:44.873Z,20.95
2018-10-16T11:24:44.861Z,20.99
2018-10-16T11:25:44.849Z,21.05
2018-10-16T11:26:44.843Z,21.04
2018-10-16T11:27:44.828Z,21.07
2018-10-16T11:28:44.820Z,21.14
2018-10-16T11:29:44.807Z,21.26
2018-10-16T11:30:44.796Z,21.34
2018-10-16T11:31:44.793Z,21.43
2018-10-16T11:32:44.772Z,21.53
2018-10-16T11:33:44.763Z,21.59
2018-10-16T11:34:44.749Z,21.63
2018-10-16T11:35:44.742Z,21.61
2018-10-16T11:36:44.729Z,21.63
2018-10-16T11:37:44.719Z,21.64
2018-10-16T11:38:44.709Z,21.67
2018-10-16T11:39:44.699Z,21.71
2018-10-16T11:40:44.688Z,21.79
2018-10-16T11:41:44.677Z,21.89
2018-10-16T11:42:44.665Z,21.95
2018-10-16T11:43:44.654Z,21.95
2018-10-16T11:44:44.643Z,21.92
2018-10-16T11:45:44.676Z,21.92
2018-10-16T11:46:44.624Z,21.97
2018-10-16T11:47:44.610Z,22.00
2018-10-16T11:48:44.604Z,21.98
2018-10-16T11:49:44.588Z,22.00
2018-10-16T11:50:44.579Z,22.01
2018-10-16T11:51:44.570Z,22.03
2018-10-16T11:52:44.558Z,22.07
2018-10-16T11:53:44.547Z,22.13
2018-10-16T11:54:44.535Z,22.19
2018-10-16T11:55:44.523Z,22.23
2018-10-16T11:56:44.515Z,22.22
2018-10-16T11:57:44.503Z,22.23
2018-10-16T11:58:44.492Z,22.25
2018-10-16T11:59:44.482Z,22.19
2018-10-16T12:00:44.474Z,22.05
2018-10-16T12:01:44.460Z,22.04
2018-10-16T12:02:44.451Z,22.01
2018-10-16T12:03:44.444Z,21.98
2018-10-16T12:04:44.427Z,21.98
2018-10-16T12:05:44.415Z,22.00
2018-10-16T12:06:44.406Z,22.01
2018-10-16T12:07:44.395Z,22.04
2018-10-16T12:08:44.384Z,22.07
2018-10-16T12:09:44.374Z,22.07
2018-10-16T12:10:44.402Z,22.10
2018-10-16T12:11:44.353Z,22.18
2018-10-16T12:12:44.348Z,22.23
2018-10-16T12:13:44.328Z,22.29
2018-10-16T12:14:44.319Z,22.32
2018-10-16T12:15:44.309Z,22.37
2018-10-16T12:16:44.330Z,22.38
2018-10-16T12:17:44.288Z,22.38
2018-10-16T12:18:44.276Z,22.45
2018-10-16T12:19:44.280Z,22.51
2018-10-16T12:20:44.266Z,22.60
2018-10-16T12:21:44.247Z,22.64
2018-10-16T12:22:44.235Z,22.63
2018-10-16T12:23:44.407Z,22.59
2018-10-16T12:24:44.213Z,22.60
2018-10-16T12:25:44.203Z,22.61
2018-10-16T12:26:44.193Z,22.61
2018-10-16T12:27:44.180Z,22.63
2018-10-16T12:28:44.217Z,22.64
2018-10-16T12:29:44.161Z,22.66
2018-10-16T12:30:44.149Z,22.67
2018-10-16T12:31:44.137Z,22.69
2018-10-16T12:32:44.127Z,22.70
2018-10-16T12:33:44.116Z,22.74
2018-10-16T12:34:44.106Z,22.74
2018-10-16T12:35:44.093Z,22.66
2018-10-16T12:36:44.082Z,22.61
2018-10-16T12:37:44.073Z,22.63
2018-10-16T12:38:44.065Z,22.66
2018-10-16T12:39:44.144Z,22.69
2018-10-16T12:40:44.044Z,22.60
2018-10-16T12:41:44.030Z,22.55
2018-10-16T12:42:44.038Z,22.60
2018-10-16T12:43:44.161Z,22.66
2018-10-16T12:44:43.998Z,22.74
2018-10-16T12:45:43.989Z,22.82
2018-10-16T12:46:43.977Z,22.86
2018-10-16T12:47:43.967Z,22.91
2018-10-16T12:48:43.954Z,22.93
2018-10-16T12:49:43.946Z,22.88
2018-10-16T12:50:43.934Z,22.82
2018-10-16T12:51:43.924Z,22.66
2018-10-16T12:52:43.914Z,22.60
2018-10-16T12:53:43.902Z,22.60
2018-10-16T12:54:43.893Z,22.61
2018-10-16T12:55:43.885Z,22.69
2018-10-16T12:56:43.969Z,22.74
2018-10-16T12:57:43.861Z,22.70
2018-10-16T12:58:43.853Z,22.67
2018-10-16T12:59:43.837Z,22.70
2018-10-16T13:00:43.828Z,22.76
2018-10-16T13:01:43.818Z,22.79
2018-10-16T13:02:43.808Z,22.81